createdAt,value
2023-02-23T00:00:08.603Z,21.27
2023-02-23T00:03:12.624Z,20.57
2023-02-23T00:06:15.925Z,14.83
2023-02-23T00:09:24.398Z,20.33
2023-02-23T00:12:27.544Z,20.63
2023-02-23T00:15:31.984Z,18.43
2023-02-23T00:18:45.166Z,18.17
2023-02-23T00:21:48.329Z,21.20
2023-02-23T00:24:51.484Z,13.87
2023-02-23T00:27:54.936Z,18.60
2023-02-23T00:31:00.026Z,15.60
2023-02-23T00:34:05.341Z,17.13
2023-02-23T00:37:08.935Z,17.07
2023-02-23T00:40:16.329Z,19.77
2023-02-23T00:43:20.140Z,23.70
2023-02-23T00:46:27.688Z,19.77
2023-02-23T00:49:30.964Z,18.93
2023-02-23T00:52:34.197Z,18.40
2023-02-23T00:55:37.316Z,18.67
2023-02-23T00:58:41.248Z,16.33
2023-02-23T01:01:46.274Z,20.47
2023-02-23T01:04:49.569Z,20.87
2023-02-23T01:07:52.723Z,19.20
2023-02-23T01:10:55.885Z,16.40
2023-02-23T01:14:00.613Z,18.43
2023-02-23T01:17:05.122Z,20.30
2023-02-23T01:20:15.745Z,18.03
2023-02-23T01:23:20.893Z,20.50
2023-02-23T01:26:27.005Z,20.93
2023-02-23T01:29:30.547Z,20.17
2023-02-23T01:32:36.463Z,17.80
2023-02-23T01:35:39.610Z,17.70
2023-02-23T01:38:43.028Z,19.17
2023-02-23T01:41:46.424Z,20.10
2023-02-23T01:45:24.894Z,20.30
2023-02-23T01:48:34.273Z,18.93
2023-02-23T01:51:43.058Z,20.60
2023-02-23T01:54:51.107Z,23.60
2023-02-23T01:57:59.605Z,22.13
2023-02-23T02:01:03.292Z,18.53
2023-02-23T02:04:08.628Z,18.57
2023-02-23T02:07:14.322Z,22.63
2023-02-23T02:10:35.815Z,16.77
2023-02-23T02:13:40.831Z,17.57
2023-02-23T02:16:54.755Z,21.27
2023-02-23T02:20:46.556Z,20.40
2023-02-23T02:24:11.024Z,18.40
2023-02-23T02:27:27.958Z,19.60
2023-02-23T02:31:16.994Z,22.10
2023-02-23T02:35:08.594Z,19.70
2023-02-23T02:38:29.770Z,18.87
2023-02-23T02:41:42.386Z,19.60
2023-02-23T02:44:53.412Z,18.17
2023-02-23T02:48:02.838Z,22.60
2023-02-23T02:51:12.232Z,23.60
2023-02-23T02:54:26.648Z,21.17
2023-02-23T02:57:31.024Z,21.00
2023-02-23T03:00:55.388Z,24.23
2023-02-23T03:04:17.752Z,22.37
2023-02-23T03:07:45.196Z,18.43
2023-02-23T03:11:15.277Z,20.70
2023-02-23T03:14:46.924Z,22.57
2023-02-23T03:18:15.592Z,20.97
2023-02-23T03:21:42.678Z,21.13
2023-02-23T03:25:10.290Z,21.27
2023-02-23T03:28:36.828Z,22.03
2023-02-23T03:32:02.816Z,20.47
2023-02-23T03:35:28.397Z,18.60
2023-02-23T03:38:55.001Z,23.53
2023-02-23T03:42:17.525Z,18.43
2023-02-23T03:45:43.815Z,22.67
2023-02-23T03:49:06.669Z,19.93
2023-02-23T03:52:33.144Z,22.40
2023-02-23T03:55:57.980Z,19.40
2023-02-23T03:59:21.263Z,22.60
2023-02-23T04:02:45.260Z,23.03
2023-02-23T04:06:09.186Z,19.13
2023-02-23T04:09:30.137Z,21.63
2023-02-23T04:12:56.387Z,26.73
2023-02-23T04:16:02.116Z,21.80
2023-02-23T04:19:07.608Z,21.60
2023-02-23T04:22:10.737Z,21.53
2023-02-23T04:25:17.251Z,20.77
2023-02-23T04:28:20.937Z,17.63
2023-02-23T04:31:25.322Z,22.13
2023-02-23T04:34:30.223Z,25.13
2023-02-23T04:37:33.480Z,21.27
2023-02-23T04:40:36.759Z,20.73
2023-02-23T04:43:39.914Z,19.70
2023-02-23T04:46:43.077Z,19.73
2023-02-23T04:49:47.590Z,20.47
2023-02-23T04:52:52.482Z,23.13
2023-02-23T04:55:55.922Z,21.50
2023-02-23T04:58:59.173Z,19.50
2023-02-23T05:02:02.783Z,22.87
2023-02-23T05:05:09.265Z,23.00
2023-02-23T05:08:12.522Z,20.77
2023-02-23T05:11:15.640Z,32.13
2023-02-23T05:14:18.943Z,22.27
2023-02-23T05:17:22.130Z,17.93
2023-02-23T05:20:26.954Z,23.40
2023-02-23T05:23:30.430Z,24.27
2023-02-23T05:26:34.101Z,21.50
2023-02-23T05:29:37.710Z,20.83
2023-02-23T05:32:40.848Z,24.13
2023-02-23T05:35:45.375Z,17.63
2023-02-23T05:38:49.524Z,18.80
2023-02-23T05:41:52.703Z,21.43
2023-02-23T05:44:55.879Z,20.43
2023-02-23T05:47:59.232Z,22.07
2023-02-23T05:51:05.192Z,24.00
2023-02-23T05:54:08.579Z,27.73
2023-02-23T05:57:11.739Z,22.73
2023-02-23T06:00:15.529Z,18.17
2023-02-23T06:03:18.872Z,24.60
2023-02-23T06:06:25.486Z,25.67
2023-02-23T06:09:28.861Z,22.73
2023-02-23T06:12:32.048Z,21.33
2023-02-23T06:15:35.191Z,25.73
2023-02-23T06:18:38.549Z,25.20
2023-02-23T06:21:43.098Z,26.00
2023-02-23T06:24:46.486Z,26.53
2023-02-23T06:27:49.654Z,26.70
2023-02-23T06:30:53.497Z,25.17
2023-02-23T06:33:57.253Z,22.40
2023-02-23T06:37:01.942Z,26.90
2023-02-23T06:40:05.910Z,21.87
2023-02-23T06:43:09.084Z,17.90
2023-02-23T06:46:12.216Z,24.13
2023-02-23T06:49:16.656Z,25.00
2023-02-23T06:52:21.369Z,28.57
2023-02-23T06:55:24.563Z,23.83
2023-02-23T06:58:28.419Z,26.20
2023-02-23T07:01:31.593Z,23.60
2023-02-23T07:04:35.131Z,27.63
2023-02-23T07:07:40.074Z,23.90
2023-02-23T07:10:43.873Z,29.00
2023-02-23T07:13:47.073Z,22.83
2023-02-23T07:16:50.228Z,27.27
2023-02-23T07:19:53.416Z,22.37
2023-02-23T07:22:58.031Z,28.33
2023-02-23T07:26:01.831Z,23.93
2023-02-23T07:29:05.383Z,33.97
2023-02-23T07:32:09.032Z,29.00
2023-02-23T07:35:13.340Z,27.00
2023-02-23T07:38:18.020Z,27.03
2023-02-23T07:41:21.674Z,29.30
2023-02-23T07:44:25.116Z,24.90
2023-02-23T07:47:31.186Z,22.93
2023-02-23T07:50:34.376Z,25.93
2023-02-23T07:53:38.974Z,22.87
2023-02-23T07:56:42.179Z,28.30
2023-02-23T07:59:45.393Z,27.13
2023-02-23T08:02:48.546Z,26.73
2023-02-23T08:05:51.828Z,27.80
2023-02-23T08:08:56.411Z,24.50
2023-02-23T08:11:59.709Z,27.13
2023-02-23T08:15:02.987Z,29.87
2023-02-23T08:18:06.601Z,24.63
2023-02-23T08:21:09.811Z,27.03
2023-02-23T08:24:14.581Z,27.03
2023-02-23T08:27:17.768Z,22.40
2023-02-23T08:30:23.665Z,25.43
2023-02-23T08:33:26.985Z,23.53
2023-02-23T08:36:30.379Z,24.30
2023-02-23T08:39:34.982Z,26.20
2023-02-23T08:42:38.116Z,25.13
2023-02-23T08:45:41.321Z,19.43
2023-02-23T08:48:44.542Z,18.33
2023-02-23T08:51:48.036Z,23.93
2023-02-23T08:54:52.587Z,22.27
2023-02-23T08:57:55.827Z,26.33
2023-02-23T09:00:59.495Z,22.30
2023-02-23T09:04:02.692Z,26.63
2023-02-23T09:07:06.237Z,17.93
2023-02-23T09:10:14.334Z,21.63
2023-02-23T09:13:17.778Z,17.63
2023-02-23T09:16:21.053Z,18.30
2023-02-23T09:19:24.317Z,20.30
2023-02-23T09:22:27.640Z,21.47
2023-02-23T09:25:32.438Z,20.57
2023-02-23T09:28:38.194Z,21.67
2023-02-23T09:31:43.851Z,20.80
2023-02-23T09:34:48.827Z,25.27
2023-02-23T09:37:54.756Z,26.23
2023-02-23T09:40:59.427Z,19.93
2023-02-23T09:44:06.009Z,24.57
2023-02-23T09:47:22.894Z,21.90
2023-02-23T09:50:29.460Z,28.13
2023-02-23T09:53:37.470Z,24.27
2023-02-23T09:56:46.328Z,20.93
2023-02-23T09:59:49.542Z,21.23
2023-02-23T10:03:10.622Z,20.50
2023-02-23T10:06:17.141Z,24.87
2023-02-23T10:09:28.683Z,22.63
2023-02-23T10:12:40.319Z,26.73
2023-02-23T10:15:48.314Z,25.80
2023-02-23T10:19:00.509Z,25.90
2023-02-23T10:22:06.834Z,27.03
2023-02-23T10:25:14.544Z,25.13
2023-02-23T10:28:22.252Z,26.03
2023-02-23T10:31:29.933Z,29.03
2023-02-23T10:34:33.913Z,30.30
2023-02-23T10:37:37.132Z,28.53
2023-02-23T10:40:40.633Z,27.63
2023-02-23T10:43:45.265Z,25.50
2023-02-23T10:46:55.282Z,27.67
2023-02-23T10:49:59.685Z,26.43
2023-02-23T10:53:16.680Z,23.80
2023-02-23T10:56:21.977Z,25.53
2023-02-23T10:59:27.567Z,22.90
2023-02-23T11:02:32.019Z,27.63
2023-02-23T11:05:46.553Z,28.23
2023-02-23T11:08:49.930Z,28.30
2023-02-23T11:12:03.798Z,25.67
2023-02-23T11:15:46.376Z,26.00
2023-02-23T11:18:55.695Z,25.97
2023-02-23T11:21:59.049Z,24.83
2023-02-23T11:25:06.775Z,23.73
2023-02-23T11:28:20.969Z,25.60
2023-02-23T11:31:32.163Z,29.93
2023-02-23T11:34:40.832Z,28.53
2023-02-23T11:37:44.102Z,32.40
2023-02-23T11:41:00.361Z,27.37
2023-02-23T11:44:06.247Z,26.63
2023-02-23T11:47:20.612Z,26.00
2023-02-23T11:50:28.141Z,25.60
2023-02-23T11:53:36.030Z,24.77
2023-02-23T11:56:39.292Z,28.00
2023-02-23T11:59:47.801Z,24.93
2023-02-23T12:02:55.994Z,24.93
2023-02-23T12:06:02.436Z,27.90
2023-02-23T12:09:18.601Z,28.40
2023-02-23T12:12:24.496Z,24.33
2023-02-23T12:15:37.361Z,27.70
2023-02-23T12:18:49.549Z,31.47
2023-02-23T12:22:01.430Z,35.57
2023-02-23T12:25:07.605Z,33.03
2023-02-23T12:28:19.380Z,31.43
2023-02-23T12:31:28.413Z,34.57
2023-02-23T12:34:40.535Z,26.33
2023-02-23T12:37:47.808Z,28.60
2023-02-23T12:40:55.416Z,30.43
2023-02-23T12:44:03.194Z,31.07
2023-02-23T12:47:25.857Z,36.63
2023-02-23T12:50:33.800Z,35.43
2023-02-23T12:53:41.932Z,32.40
2023-02-23T12:57:04.742Z,30.00
2023-02-23T13:00:36.167Z,29.80
2023-02-23T13:04:02.750Z,34.63
2023-02-23T13:07:15.304Z,30.00
2023-02-23T13:10:29.038Z,29.67
2023-02-23T13:13:39.589Z,36.40
2023-02-23T13:16:49.559Z,40.10
2023-02-23T13:19:56.673Z,31.60
2023-02-23T13:23:11.835Z,33.37
2023-02-23T13:26:27.600Z,33.47
2023-02-23T13:29:37.467Z,38.33
2023-02-23T13:32:40.852Z,33.40
2023-02-23T13:35:44.230Z,38.80
2023-02-23T13:39:18.478Z,33.30
2023-02-23T13:42:33.929Z,32.30
2023-02-23T13:45:54.666Z,34.03
2023-02-23T13:49:02.425Z,37.93
2023-02-23T13:52:16.441Z,32.97
2023-02-23T13:55:48.814Z,39.37
2023-02-23T13:58:57.772Z,35.07
2023-02-23T14:02:07.678Z,37.10
2023-02-23T14:05:19.924Z,38.63
2023-02-23T14:08:28.537Z,37.73
2023-02-23T14:11:48.347Z,36.00
2023-02-23T14:14:51.570Z,30.17
2023-02-23T14:17:59.268Z,44.77
2023-02-23T14:21:17.384Z,33.90
2023-02-23T14:24:23.105Z,36.13
2023-02-23T14:27:41.685Z,28.90
2023-02-23T14:30:51.051Z,28.50
2023-02-23T14:34:00.908Z,34.27
2023-02-23T14:37:15.299Z,29.90
2023-02-23T14:40:24.189Z,33.40
2023-02-23T14:43:43.791Z,26.30
2023-02-23T14:46:58.196Z,29.70
2023-02-23T14:50:02.899Z,31.67
2023-02-23T14:53:10.216Z,30.27
2023-02-23T14:56:21.531Z,31.77
2023-02-23T14:59:28.201Z,31.50
2023-02-23T15:02:32.144Z,32.37
2023-02-23T15:05:38.120Z,37.93
2023-02-23T15:08:45.921Z,33.27
2023-02-23T15:11:54.159Z,33.63
2023-02-23T15:15:02.139Z,33.37
2023-02-23T15:18:41.918Z,29.60
2023-02-23T15:21:50.381Z,29.00
2023-02-23T15:24:53.743Z,28.13
2023-02-23T15:27:57.010Z,30.30
2023-02-23T15:31:04.883Z,29.57
2023-02-23T15:34:11.423Z,30.17
2023-02-23T15:37:21.720Z,27.30
2023-02-23T15:40:29.248Z,31.07
2023-02-23T15:43:34.638Z,29.87
2023-02-23T15:46:41.690Z,24.80
2023-02-23T15:49:45.211Z,31.03
2023-02-23T15:52:52.197Z,34.57
2023-02-23T15:56:00.793Z,34.80
2023-02-23T15:59:11.334Z,29.20
2023-02-23T16:02:20.748Z,29.33
2023-02-23T16:05:30.379Z,30.73
2023-02-23T16:08:37.099Z,33.73
2023-02-23T16:11:41.919Z,26.03
2023-02-23T16:14:48.547Z,36.87
2023-02-23T16:17:58.356Z,31.60
2023-02-23T16:21:03.162Z,32.77
2023-02-23T16:24:11.777Z,33.73
2023-02-23T16:27:15.869Z,29.47
2023-02-23T16:30:23.745Z,30.07
2023-02-23T16:33:30.030Z,29.77
2023-02-23T16:36:38.736Z,30.53
2023-02-23T16:39:42.236Z,30.60
2023-02-23T16:42:46.174Z,29.37
2023-02-23T16:45:50.512Z,27.90
2023-02-23T16:48:59.729Z,31.13
2023-02-23T16:52:03.994Z,28.30
2023-02-23T16:55:08.042Z,31.83
2023-02-23T16:58:18.599Z,30.67
2023-02-23T17:01:22.120Z,25.90
2023-02-23T17:04:28.058Z,27.10
2023-02-23T17:07:32.286Z,32.07
2023-02-23T17:10:37.147Z,31.50
2023-02-23T17:13:41.493Z,33.57
2023-02-23T17:16:46.108Z,30.80
2023-02-23T17:19:51.928Z,30.27
2023-02-23T17:22:56.576Z,30.33
2023-02-23T17:26:05.694Z,33.37
2023-02-23T17:29:09.747Z,40.57
2023-02-23T17:32:14.040Z,39.37
2023-02-23T17:35:19.921Z,30.23
2023-02-23T17:38:34.292Z,33.30
2023-02-23T17:41:38.680Z,31.00
2023-02-23T17:44:43.692Z,30.83
2023-02-23T17:47:48.900Z,31.23
2023-02-23T17:51:01.323Z,33.33
2023-02-23T17:54:06.853Z,36.83
2023-02-23T17:57:11.182Z,37.03
2023-02-23T18:00:17.942Z,38.03
2023-02-23T18:03:22.389Z,31.93
2023-02-23T18:06:29.577Z,36.93
2023-02-23T18:09:35.337Z,39.27
2023-02-23T18:12:39.376Z,33.67
2023-02-23T18:15:43.710Z,37.90
2023-02-23T18:18:50.654Z,38.07
2023-02-23T18:21:57.738Z,32.23
2023-02-23T18:25:03.620Z,36.60
2023-02-23T18:28:11.082Z,40.20
2023-02-23T18:31:18.072Z,33.77
2023-02-23T18:34:22.827Z,40.30
2023-02-23T18:37:29.317Z,38.20
2023-02-23T18:40:34.907Z,39.27
2023-02-23T18:43:43.830Z,34.30
2023-02-23T18:46:49.679Z,36.90
2023-02-23T18:49:54.915Z,34.03
2023-02-23T18:53:05.532Z,40.43
2023-02-23T18:56:13.353Z,33.87
2023-02-23T18:59:19.665Z,33.50
2023-02-23T19:02:25.777Z,34.40
2023-02-23T19:05:30.923Z,35.00
2023-02-23T19:08:45.131Z,33.37
2023-02-23T19:11:54.154Z,39.93
2023-02-23T19:15:00.510Z,39.30
2023-02-23T19:18:06.183Z,37.80
2023-02-23T19:21:11.998Z,36.40
2023-02-23T19:24:19.948Z,36.07
2023-02-23T19:27:26.198Z,37.07
2023-02-23T19:30:33.071Z,38.47
2023-02-23T19:33:39.220Z,39.30
2023-02-23T19:36:49.917Z,37.87
2023-02-23T19:39:58.136Z,37.97
2023-02-23T19:43:03.674Z,39.73
2023-02-23T19:46:09.573Z,38.97
2023-02-23T19:49:17.527Z,44.47
2023-02-23T19:52:23.152Z,43.30
2023-02-23T19:55:31.211Z,45.77
2023-02-23T19:58:36.546Z,47.07
2023-02-23T20:01:41.221Z,43.00
2023-02-23T20:04:46.635Z,43.43
2023-02-23T20:07:51.858Z,48.77
2023-02-23T20:11:01.023Z,43.97
2023-02-23T20:14:05.932Z,42.10
2023-02-23T20:17:11.119Z,39.70
2023-02-23T20:20:18.418Z,43.33
2023-02-23T20:23:22.425Z,39.70
2023-02-23T20:26:34.724Z,37.40
2023-02-23T20:29:39.532Z,40.93
2023-02-23T20:32:44.371Z,41.77
2023-02-23T20:35:51.084Z,39.67
2023-02-23T20:38:56.849Z,41.37
2023-02-23T20:42:05.744Z,45.73
2023-02-23T20:45:15.198Z,40.57
2023-02-23T20:48:19.231Z,38.87
2023-02-23T20:51:23.886Z,42.57
2023-02-23T20:54:29.318Z,45.00
2023-02-23T20:57:37.007Z,41.17
2023-02-23T21:00:41.848Z,40.73
2023-02-23T21:03:47.335Z,37.30
2023-02-23T21:06:51.523Z,42.73
2023-02-23T21:09:55.822Z,44.33
2023-02-23T21:13:01.920Z,39.13
2023-02-23T21:16:06.952Z,35.97
2023-02-23T21:19:16.657Z,40.90
2023-02-23T21:22:21.239Z,44.63
2023-02-23T21:25:29.493Z,46.80
2023-02-23T21:28:35.988Z,44.67
2023-02-23T21:31:40.366Z,47.53
2023-02-23T21:34:44.220Z,40.30
2023-02-23T21:37:48.364Z,37.23
2023-02-23T21:40:51.556Z,40.97
2023-02-23T21:43:56.677Z,41.90
2023-02-23T21:47:00.656Z,42.83
2023-02-23T21:50:04.962Z,43.67
2023-02-23T21:53:09.401Z,38.87
2023-02-23T21:56:14.802Z,39.53
2023-02-23T21:59:20.069Z,44.50
2023-02-23T22:02:23.575Z,42.80
2023-02-23T22:05:27.226Z,39.63
2023-02-23T22:08:30.364Z,38.57
2023-02-23T22:11:37.437Z,40.63
2023-02-23T22:14:41.988Z,40.90
2023-02-23T22:17:45.709Z,39.03
2023-02-23T22:20:57.600Z,40.17
2023-02-23T22:24:01.664Z,42.03
2023-02-23T22:27:04.949Z,43.00
2023-02-23T22:30:12.275Z,39.60
2023-02-23T22:33:15.676Z,38.50
2023-02-23T22:36:19.135Z,38.27
2023-02-23T22:39:22.257Z,41.90
2023-02-23T22:42:29.158Z,42.10
2023-02-23T22:45:33.696Z,43.77
2023-02-23T22:48:37.238Z,41.23
2023-02-23T22:51:40.534Z,42.00
2023-02-23T22:54:45.619Z,38.20
2023-02-23T22:57:48.848Z,39.03
2023-02-23T23:01:04.137Z,39.53
2023-02-23T23:04:10.463Z,39.43
2023-02-23T23:07:13.829Z,39.43
2023-02-23T23:10:18.690Z,38.20
2023-02-23T23:13:23.209Z,40.23
2023-02-23T23:16:32.464Z,43.87
2023-02-23T23:19:39.146Z,45.83
2023-02-23T23:22:42.547Z,37.23
2023-02-23T23:25:47.969Z,41.20
2023-02-23T23:28:53.134Z,43.70
2023-02-23T23:31:58.182Z,42.03
2023-02-23T23:35:01.534Z,39.07
2023-02-23T23:38:06.199Z,45.03
2023-02-23T23:41:13.837Z,45.57
2023-02-23T23:44:18.355Z,41.80
2023-02-23T23:47:22.902Z,46.43
2023-02-23T23:50:27.456Z,43.67
2023-02-23T23:53:30.729Z,43.47
2023-02-23T23:56:37.410Z,44.07
2023-02-23T23:59:46.004Z,38.70
